Time;durP1;ratioP1;P1;durP2;ratioP2;P2;SDS_P1;SDS_P2;PMS_P1;PMS_P2;Temp;Humidity;BMP_temperature;BMP_pressure;BME280_temperature;BME280_humidity;BME280_pressure;Samples;Min_cycle;Max_cycle;Signal;HPM_P1;HPM_P2
2020/12/08 10:44:50;;;;;;;21.60;14.57;;;10.30;73.40;;;;;;5100215;28;27695;-60
2020/12/08 10:47:35;;;;;;;23.35;14.75;;;10.40;69.80;;;;;;5101585;28;27449;-60
2020/12/08 10:50:19;;;;;;;23.85;15.25;;;10.40;66.00;;;;;;5101696;28;27452;-46
2020/12/08 10:53:05;;;;;;;22.48;14.45;;;10.40;65.60;;;;;;5097846;28;26994;-47
2020/12/08 10:55:53;;;;;;;23.35;14.35;;;10.30;64.50;;;;;;5097512;28;27878;-45
2020/12/08 10:58:38;;;;;;;28.15;17.05;;;10.40;65.60;;;;;;5100342;28;27328;-47
2020/12/08 11:01:26;;;;;;;26.33;16.73;;;10.40;64.80;;;;;;5101326;28;27342;-46
2020/12/08 11:04:13;;;;;;;32.90;19.23;;;10.50;67.10;;;;;;5097737;28;27544;-46
2020/12/08 11:07:01;;;;;;;31.38;19.73;;;10.70;68.40;;;;;;5101112;28;27487;-46
2020/12/08 11:09:46;;;;;;;30.60;18.42;;;10.80;74.00;;;;;;5101173;28;27476;-46
2020/12/08 11:12:30;;;;;;;27.25;17.48;;;10.90;70.20;;;;;;5100653;28;27373;-46
2020/12/08 11:15:15;;;;;;;26.17;16.00;;;10.90;70.80;;;;;;5100846;28;27484;-47
2020/12/08 11:18:02;;;;;;;28.40;17.83;;;10.80;71.40;;;;;;5101070;28;27426;-49
2020/12/08 11:20:48;;;;;;;27.75;17.02;;;10.60;75.20;;;;;;5100236;28;27528;-48
2020/12/08 11:23:33;;;;;;;22.33;14.40;;;10.40;73.90;;;;;;5100802;28;27397;-49
2020/12/08 11:26:20;;;;;;;26.27;14.13;;;10.30;75.90;;;;;;5100933;28;27313;-48
2020/12/08 11:29:05;;;;;;;28.20;16.60;;;10.20;76.50;;;;;;5100506;28;27387;-51
2020/12/08 11:31:52;;;;;;;26.67;16.00;;;10.00;72.40;;;;;;5100772;28;27485;-46
2020/12/08 11:34:37;;;;;;;25.52;16.17;;;10.00;72.60;;;;;;5100557;28;27411;-48
2020/12/08 11:37:26;;;;;;;26.88;16.88;;;9.90;69.00;;;;;;5099631;28;27434;-30
2020/12/08 11:40:11;;;;;;;28.63;16.10;;;9.90;69.40;;;;;;5099635;28;27820;-30
2020/12/08 11:42:55;;;;;;;25.95;16.80;;;9.90;70.20;;;;;;5099727;28;27347;-30
2020/12/08 11:45:39;;;;;;;25.42;16.25;;;10.00;71.30;;;;;;5100397;28;27466;-30
2020/12/08 11:48:25;;;;;;;25.98;16.33;;;10.10;71.90;;;;;;5100620;28;27450;-30
2020/12/08 11:51:10;;;;;;;26.45;16.33;;;10.20;72.40;;;;;;5099776;28;27877;-30
2020/12/08 11:53:55;;;;;;;26.80;15.82;;;10.40;72.80;;;;;;5100045;28;27470;-30
2020/12/08 11:56:43;;;;;;;25.05;15.70;;;10.50;73.10;;;;;;5087057;28;27443;-31
2020/12/08 11:59:30;;;;;;;22.77;15.48;;;10.70;73.30;;;;;;5086694;28;27331;-31
2020/12/08 12:02:14;;;;;;;23.27;14.90;;;10.80;72.90;;;;;;5086957;28;27332;-31
2020/12/08 12:05:01;;;;;;;21.77;14.55;;;11.00;82.20;;;;;;5086480;28;27631;-31
2020/12/08 12:07:46;;;;;;;20.92;14.95;;;11.00;73.50;;;;;;5086328;28;27430;-31
2020/12/08 12:10:30;;;;;;;22.73;15.35;;;11.10;72.90;;;;;;5086638;28;27454;-32
2020/12/08 12:13:15;;;;;;;23.00;15.45;;;11.20;73.00;;;;;;5086620;28;27387;-32
2020/12/08 12:16:00;;;;;;;23.45;14.65;;;11.30;73.30;;;;;;5086328;28;27447;-31
2020/12/08 12:18:44;;;;;;;22.90;14.40;;;11.30;73.00;;;;;;5085904;28;27404;-31
2020/12/08 12:21:29;;;;;;;22.13;15.13;;;11.40;73.30;;;;;;5086527;28;27301;-30
2020/12/08 12:24:14;;;;;;;21.13;14.50;;;11.40;73.50;;;;;;5082066;28;27422;-30
2020/12/08 12:27:02;;;;;;;20.80;14.23;;;11.40;73.30;;;;;;5082443;28;27356;-31
2020/12/08 12:29:49;;;;;;;19.85;14.15;;;11.40;73.40;;;;;;5086153;28;27539;-31
2020/12/08 12:32:33;;;;;;;20.65;14.27;;;11.40;73.80;;;;;;5086297;28;27457;-31
2020/12/08 12:35:18;;;;;;;19.50;13.82;;;11.40;73.80;;;;;;5085132;28;27455;-30
2020/12/08 12:38:02;;;;;;;19.83;14.38;;;11.40;74.00;;;;;;5082964;28;27392;-31
2020/12/08 12:40:47;;;;;;;19.55;12.90;;;11.30;74.00;;;;;;5085991;28;27476;-30
2020/12/08 12:43:31;;;;;;;21.20;14.85;;;11.20;73.90;;;;;;5085117;28;27466;-30
2020/12/08 12:46:16;;;;;;;19.77;14.23;;;11.00;74.00;;;;;;5085399;28;27448;-32
2020/12/08 12:49:03;;;;;;;21.25;14.45;;;10.90;74.40;;;;;;5085390;28;27418;-30
2020/12/08 12:51:48;;;;;;;21.98;13.07;;;10.80;74.70;;;;;;5086105;28;27450;-32
2020/12/08 12:54:33;;;;;;;23.33;15.13;;;10.70;75.20;;;;;;5086012;28;27450;-30
2020/12/08 12:57:18;;;;;;;23.15;14.30;;;10.70;75.00;;;;;;5085226;28;27417;-30
2020/12/08 13:00:04;;;;;;;21.33;13.60;;;10.70;75.40;;;;;;5085919;28;27423;-30
2020/12/08 13:02:49;;;;;;;21.33;13.48;;;10.70;75.60;;;;;;5085157;28;27414;-30
2020/12/08 13:05:33;;;;;;;17.17;12.50;;;10.70;75.90;;;;;;5081385;28;27458;-30
2020/12/08 13:08:20;;;;;;;19.77;13.75;;;10.70;75.90;;;;;;5084971;28;27860;-31
2020/12/08 13:11:09;;;;;;;20.30;13.48;;;10.70;75.70;;;;;;5085727;28;27491;-30
2020/12/08 13:13:53;;;;;;;20.88;13.32;;;10.70;75.60;;;;;;5085469;28;27390;-30
2020/12/08 13:16:39;;;;;;;20.45;14.00;;;10.60;75.50;;;;;;5085407;28;27389;-31
2020/12/08 13:19:23;;;;;;;20.20;14.50;;;10.60;75.70;;;;;;5085559;28;27313;-30
2020/12/08 13:22:08;;;;;;;22.10;14.32;;;10.60;75.40;;;;;;5085575;28;27531;-31
2020/12/08 13:24:56;;;;;;;19.30;13.18;;;10.50;75.30;;;;;;5085555;28;27331;-30
2020/12/08 13:27:40;;;;;;;22.52;14.63;;;10.40;75.70;;;;;;5085191;28;27426;-31
2020/12/08 13:30:25;;;;;;;19.70;12.63;;;10.30;75.70;;;;;;5084694;28;27348;-30
2020/12/08 13:33:11;;;;;;;21.77;14.00;;;10.20;75.90;;;;;;5085059;28;27382;-30
2020/12/08 13:35:59;;;;;;;20.15;13.85;;;10.10;76.50;;;;;;5085094;28;27412;-30
2020/12/08 13:38:46;;;;;;;19.52;12.75;;;10.00;76.40;;;;;;5084996;28;27400;-30
2020/12/08 13:41:33;;;;;;;20.85;13.10;;;9.90;76.50;;;;;;5085056;28;27404;-31
2020/12/08 13:44:18;;;;;;;18.20;12.60;;;9.80;76.80;;;;;;5084499;28;27751;-30
2020/12/08 13:47:06;;;;;;;22.15;14.05;;;9.60;76.80;;;;;;5081758;28;27379;-30
2020/12/08 13:49:50;;;;;;;20.67;14.43;;;9.50;77.00;;;;;;5085175;28;27470;-30
2020/12/08 13:52:35;;;;;;;22.40;13.43;;;9.40;77.00;;;;;;5084820;28;27355;-30
2020/12/08 13:55:19;;;;;;;20.45;13.45;;;9.30;77.20;;;;;;5081065;28;27516;-31
2020/12/08 13:58:04;;;;;;;22.55;14.43;;;9.20;78.00;;;;;;5084848;28;27402;-31
2020/12/08 14:00:48;;;;;;;22.33;13.55;;;9.10;78.10;;;;;;5084766;28;27369;-30
2020/12/08 14:03:33;;;;;;;21.02;13.50;;;9.00;78.10;;;;;;5084437;28;27974;-30
2020/12/08 14:06:18;;;;;;;22.75;14.70;;;8.90;78.50;;;;;;5084810;28;27422;-30
2020/12/08 14:09:03;;;;;;;22.20;14.35;;;8.80;78.80;;;;;;5081369;28;27325;-31
2020/12/08 14:11:51;;;;;;;22.08;13.23;;;8.70;78.80;;;;;;5069476;28;27471;-30
2020/12/08 14:14:35;;;;;;;22.05;13.98;;;8.60;79.00;;;;;;5084726;28;27476;-31
2020/12/08 14:17:20;;;;;;;20.33;13.02;;;8.50;79.50;;;;;;5084364;28;27419;-30
2020/12/08 14:20:05;;;;;;;26.67;13.90;;;8.40;79.60;;;;;;5084382;28;27447;-30
2020/12/08 14:22:52;;;;;;;20.92;13.82;;;8.30;79.70;;;;;;5080494;28;27335;-30
2020/12/08 14:25:37;;;;;;;19.55;13.32;;;8.20;79.70;;;;;;5084295;28;27478;-31
2020/12/08 14:28:22;;;;;;;24.80;14.60;;;8.10;80.10;;;;;;5084505;28;27442;-31
2020/12/08 14:31:07;;;;;;;23.73;15.23;;;8.00;80.10;;;;;;5084308;28;27411;-31
2020/12/08 14:33:52;;;;;;;24.13;15.25;;;7.90;80.30;;;;;;5084501;28;27490;-32
2020/12/08 14:36:36;;;;;;;23.13;14.40;;;7.70;80.40;;;;;;5084211;28;27481;-30
2020/12/08 14:39:21;;;;;;;22.80;14.68;;;7.60;80.60;;;;;;5084186;28;27445;-30
2020/12/08 14:42:05;;;;;;;21.58;13.82;;;7.50;80.90;;;;;;5084461;28;27433;-31
2020/12/08 14:44:50;;;;;;;26.95;13.55;;;7.40;81.30;;;;;;5083775;28;27565;-31
2020/12/08 14:47:37;;;;;;;24.67;14.68;;;7.30;81.40;;;;;;5084020;28;27338;-31
2020/12/08 14:50:22;;;;;;;22.60;13.98;;;7.20;81.80;;;;;;5083720;28;27457;-32
2020/12/08 14:53:06;;;;;;;25.27;15.90;;;7.10;81.90;;;;;;5084322;28;27458;-31
2020/12/08 14:55:54;;;;;;;25.05;15.15;;;6.90;82.20;;;;;;5083517;28;27428;-31
2020/12/08 14:58:38;;;;;;;28.80;15.13;;;6.80;82.40;;;;;;5083859;28;27465;-32
2020/12/08 15:01:24;;;;;;;27.52;15.20;;;6.70;82.70;;;;;;5084100;28;27485;-30
2020/12/08 15:04:08;;;;;;;24.15;15.23;;;6.60;83.00;;;;;;5083681;28;27495;-29
2020/12/08 15:06:53;;;;;;;26.60;14.95;;;6.50;83.20;;;;;;5084045;28;27437;-32
2020/12/08 15:09:40;;;;;;;24.80;14.15;;;6.40;83.50;;;;;;5084040;28;27518;-30
2020/12/08 15:12:28;;;;;;;23.80;14.68;;;6.30;83.70;;;;;;5083680;28;27419;-30
2020/12/08 15:15:12;;;;;;;24.13;14.38;;;6.20;84.00;;;;;;5084048;28;27384;-30
2020/12/08 15:17:57;;;;;;;22.55;13.93;;;6.10;84.10;;;;;;5083537;28;27374;-30
2020/12/08 15:20:41;;;;;;;21.27;12.95;;;6.00;84.30;;;;;;5083588;28;27322;-30
2020/12/08 15:23:28;;;;;;;23.02;13.80;;;5.90;84.30;;;;;;5083432;28;27406;-31
2020/12/08 15:26:13;;;;;;;22.90;14.55;;;5.70;84.60;;;;;;5079582;28;27399;-32
2020/12/08 15:28:58;;;;;;;24.83;14.55;;;5.60;84.80;;;;;;5083579;28;27378;-31
2020/12/08 15:31:43;;;;;;;23.70;13.13;;;5.50;84.70;;;;;;5087243;28;27387;-31
2020/12/08 15:34:28;;;;;;;24.67;15.07;;;5.40;84.90;;;;;;5087255;28;27414;-31
2020/12/08 15:37:18;;;;;;;21.08;14.10;;;5.30;84.80;;;;;;5086734;28;27358;-31
2020/12/08 15:40:04;;;;;;;23.92;13.98;;;5.20;84.80;;;;;;5086874;28;27413;-31
2020/12/08 15:42:51;;;;;;;24.33;13.90;;;5.10;85.10;;;;;;5086234;28;27406;-32
2020/12/08 15:45:38;;;;;;;19.85;12.10;;;5.00;85.00;;;;;;5086217;28;27408;-31
2020/12/08 15:48:26;;;;;;;25.52;14.35;;;4.80;85.10;;;;;;5086379;28;27355;-32
2020/12/08 15:51:10;;;;;;;21.55;12.70;;;4.70;85.20;;;;;;5087141;28;27311;-31
2020/12/08 15:53:55;;;;;;;19.40;12.02;;;4.70;85.40;;;;;;5086556;28;27977;-31
2020/12/08 15:56:40;;;;;;;25.23;14.40;;;4.60;85.50;;;;;;5086118;28;27391;-31
2020/12/08 15:59:25;;;;;;;23.35;13.63;;;4.50;85.70;;;;;;5086570;28;27419;-30
2020/12/08 16:02:10;;;;;;;21.48;12.93;;;4.40;85.70;;;;;;5086590;28;27399;-31
2020/12/08 16:04:57;;;;;;;22.27;13.32;;;4.30;85.70;;;;;;5086154;28;27386;-31
2020/12/08 16:07:44;;;;;;;23.33;14.18;;;4.20;85.90;;;;;;5086387;28;27497;-31
2020/12/08 16:10:29;;;;;;;23.30;13.32;;;4.10;86.10;;;;;;5086410;28;27533;-32
2020/12/08 16:13:13;;;;;;;21.30;12.38;;;4.00;86.00;;;;;;5085920;28;27359;-30
2020/12/08 16:16:01;;;;;;;20.98;12.90;;;4.00;86.30;;;;;;5086287;28;27473;-30
2020/12/08 16:18:45;;;;;;;23.60;13.32;;;3.90;86.40;;;;;;5086445;28;27408;-31
2020/12/08 16:21:30;;;;;;;25.70;14.07;;;3.90;86.60;;;;;;5086580;28;27510;-31
2020/12/08 16:24:14;;;;;;;24.48;13.25;;;3.80;87.00;;;;;;5086237;28;27473;-31
2020/12/08 16:26:59;;;;;;;23.17;12.90;;;3.80;87.10;;;;;;5086438;28;27482;-32
2020/12/08 16:29:43;;;;;;;19.65;11.35;;;3.70;87.30;;;;;;5086327;28;27415;-31
2020/12/08 16:32:33;;;;;;;20.45;12.38;;;3.60;87.10;;;;;;5085374;28;27466;-31
2020/12/08 16:35:17;;;;;;;19.13;11.82;;;3.50;87.20;;;;;;5086371;28;26879;-33
2020/12/08 16:38:03;;;;;;;22.10;12.18;;;3.50;87.30;;;;;;5086221;28;27930;-32
2020/12/08 16:40:50;;;;;;;21.77;13.23;;;3.40;87.70;;;;;;5085547;28;27564;-32
2020/12/08 16:43:37;;;;;;;22.90;12.60;;;3.40;87.90;;;;;;5085518;28;26903;-32
2020/12/08 16:46:22;;;;;;;22.58;12.73;;;3.30;88.20;;;;;;5082131;28;27446;-31
2020/12/08 16:49:07;;;;;;;21.48;12.73;;;3.30;88.30;;;;;;5085711;28;27529;-30
2020/12/08 16:51:51;;;;;;;23.67;13.10;;;3.20;88.20;;;;;;5085732;28;27511;-30
2020/12/08 16:54:36;;;;;;;21.77;12.73;;;3.20;88.30;;;;;;5086018;28;27414;-30
2020/12/08 16:57:21;;;;;;;23.42;12.98;;;3.10;88.20;;;;;;5085648;28;27517;-30
2020/12/08 17:00:08;;;;;;;26.98;13.73;;;3.10;88.30;;;;;;5085924;28;27473;-30
2020/12/08 17:02:54;;;;;;;25.40;14.43;;;3.10;88.40;;;;;;5084901;28;27479;-30
2020/12/08 17:05:39;;;;;;;25.15;14.45;;;3.00;88.60;;;;;;5085564;28;27445;-29
2020/12/08 17:08:23;;;;;;;22.13;13.80;;;3.00;88.70;;;;;;5085222;28;27462;-30
2020/12/08 17:11:08;;;;;;;25.25;15.25;;;3.00;88.70;;;;;;5085598;28;27935;-31
2020/12/08 17:13:55;;;;;;;23.08;13.30;;;2.90;88.80;;;;;;5085542;28;27514;-31
2020/12/08 17:16:40;;;;;;;24.52;13.65;;;2.80;89.00;;;;;;5085369;28;27409;-31
2020/12/08 17:19:27;;;;;;;24.10;14.10;;;2.80;89.20;;;;;;5085266;28;27458;-32
2020/12/08 17:22:15;;;;;;;23.77;14.68;;;2.80;89.30;;;;;;5085516;28;27385;-32
2020/12/08 17:24:59;;;;;;;22.90;14.77;;;2.70;89.30;;;;;;5084897;28;27320;-30
2020/12/08 17:27:47;;;;;;;24.27;14.07;;;2.70;89.50;;;;;;5085292;28;27324;-31
2020/12/08 17:30:31;;;;;;;24.38;13.18;;;2.70;89.60;;;;;;5085168;28;27408;-32
2020/12/08 17:33:16;;;;;;;25.98;15.82;;;2.70;89.90;;;;;;5081262;28;27383;-31
2020/12/08 17:36:01;;;;;;;24.83;13.98;;;2.70;90.00;;;;;;5084601;28;27518;-31
2020/12/08 17:38:45;;;;;;;22.60;13.57;;;2.70;90.00;;;;;;5084505;28;27352;-31
2020/12/08 17:41:30;;;;;;;23.65;13.45;;;2.60;90.10;;;;;;5084944;28;27359;-30
2020/12/08 17:44:15;;;;;;;24.92;14.82;;;2.60;90.20;;;;;;5084380;28;28030;-31
2020/12/08 17:47:02;;;;;;;26.83;14.82;;;2.60;90.30;;;;;;5085113;28;27324;-30
2020/12/08 17:49:49;;;;;;;24.40;14.38;;;2.60;90.50;;;;;;5085163;28;27452;-29
2020/12/08 17:52:34;;;;;;;29.10;15.00;;;2.60;90.50;;;;;;5084404;28;27450;-30
2020/12/08 17:55:19;;;;;;;28.50;15.43;;;2.60;90.60;;;;;;5085030;28;27876;-31
2020/12/08 17:58:04;;;;;;;26.02;14.68;;;2.60;90.70;;;;;;5084643;28;27423;-31
2020/12/08 18:00:51;;;;;;;22.52;13.85;;;2.60;90.90;;;;;;5084981;28;27395;-31
2020/12/08 18:03:39;;;;;;;25.13;14.70;;;2.70;91.10;;;;;;5083837;28;27385;-30
2020/12/08 18:06:23;;;;;;;24.35;14.13;;;2.60;91.10;;;;;;5084558;28;27402;-31
2020/12/08 18:09:11;;;;;;;26.30;15.60;;;2.60;91.30;;;;;;5084527;28;27527;-31
2020/12/08 18:11:56;;;;;;;27.77;15.73;;;2.60;91.40;;;;;;5084727;28;27332;-30
2020/12/08 18:14:40;;;;;;;33.08;16.70;;;2.60;91.50;;;;;;5080346;28;27328;-31
2020/12/08 18:17:25;;;;;;;24.48;14.80;;;2.70;91.50;;;;;;5084273;28;27337;-31
2020/12/08 18:20:13;;;;;;;30.48;16.55;;;2.70;91.60;;;;;;5083564;28;27356;-29
2020/12/08 18:22:57;;;;;;;29.63;16.83;;;2.70;91.80;;;;;;5084338;28;27422;-29
2020/12/08 18:25:42;;;;;;;26.45;15.90;;;2.70;91.90;;;;;;5084282;28;27427;-29
2020/12/08 18:28:26;;;;;;;32.42;16.85;;;2.80;92.00;;;;;;5084457;28;28028;-29
2020/12/08 18:31:11;;;;;;;27.77;16.02;;;2.80;92.10;;;;;;5084012;28;27660;-30
2020/12/08 18:34:00;;;;;;;31.48;16.75;;;2.70;92.10;;;;;;5084492;28;27442;-30
2020/12/08 18:36:45;;;;;;;29.00;16.27;;;2.70;92.10;;;;;;5083436;28;27493;-31
2020/12/08 18:39:30;;;;;;;29.27;16.35;;;2.80;92.20;;;;;;5084466;28;27477;-30
2020/12/08 18:42:14;;;;;;;28.60;15.70;;;2.80;92.20;;;;;;5084029;28;27455;-30
2020/12/08 18:44:59;;;;;;;29.63;16.88;;;2.80;92.20;;;;;;5084034;28;27464;-30
2020/12/08 18:47:46;;;;;;;29.85;16.13;;;2.80;92.20;;;;;;5080298;28;27470;-30
2020/12/08 18:50:33;;;;;;;29.25;16.27;;;2.80;92.20;;;;;;5084215;28;27372;-31
2020/12/08 18:53:20;;;;;;;28.25;15.85;;;2.80;92.20;;;;;;5083903;28;27388;-31
2020/12/08 18:56:05;;;;;;;25.90;16.80;;;2.80;92.20;;;;;;5080246;28;27360;-31
2020/12/08 18:58:49;;;;;;;28.75;16.45;;;2.80;92.20;;;;;;5080668;28;27391;-30
2020/12/08 19:01:34;;;;;;;28.45;17.02;;;2.80;92.20;;;;;;5084000;28;27404;-30
2020/12/08 19:04:19;;;;;;;29.48;16.33;;;2.80;92.20;;;;;;5083859;28;27606;-30
2020/12/08 19:07:03;;;;;;;28.58;16.88;;;2.80;92.20;;;;;;5087732;28;27390;-30
2020/12/08 19:09:48;;;;;;;30.45;16.80;;;2.80;92.20;;;;;;5087415;28;27331;-30
2020/12/08 19:12:33;;;;;;;29.83;17.27;;;2.80;92.30;;;;;;5087564;28;27401;-30
2020/12/08 19:15:18;;;;;;;31.83;16.40;;;2.80;92.30;;;;;;5087210;28;27540;-29
2020/12/08 19:18:03;;;;;;;29.38;16.75;;;2.80;92.40;;;;;;5083943;28;27344;-30
2020/12/08 19:20:48;;;;;;;31.70;16.75;;;2.70;92.40;;;;;;5087205;28;27386;-30
2020/12/08 19:23:36;;;;;;;31.88;16.90;;;2.80;92.40;;;;;;5086540;28;27390;-31
2020/12/08 19:26:24;;;;;;;24.60;15.57;;;2.80;92.40;;;;;;5087277;28;27592;-31
2020/12/08 19:29:10;;;;;;;32.40;18.08;;;2.80;92.50;;;;;;5087021;28;27469;-31
2020/12/08 19:31:59;;;;;;;26.85;16.67;;;2.80;92.50;;;;;;5083948;28;27445;-30
2020/12/08 19:34:45;;;;;;;29.20;16.88;;;2.80;92.50;;;;;;5087092;28;27313;-32
2020/12/08 19:37:32;;;;;;;25.85;15.48;;;2.80;92.50;;;;;;5087160;28;27392;-31
2020/12/08 19:40:16;;;;;;;27.83;15.57;;;2.80;92.50;;;;;;5087196;28;27412;-30
2020/12/08 19:43:04;;;;;;;26.20;16.35;;;2.80;92.60;;;;;;5085260;28;27438;-31
2020/12/08 19:45:48;;;;;;;26.98;16.42;;;2.80;92.60;;;;;;5086729;28;27462;-30
2020/12/08 19:48:33;;;;;;;29.90;17.33;;;2.80;92.50;;;;;;5086878;28;27486;-31
2020/12/08 19:51:20;;;;;;;26.33;15.98;;;2.70;92.50;;;;;;5086836;28;27415;-31
2020/12/08 19:54:05;;;;;;;31.73;16.75;;;2.70;92.50;;;;;;5086655;28;27420;-31
2020/12/08 19:56:49;;;;;;;29.27;16.92;;;2.70;92.50;;;;;;5086834;28;27518;-30
2020/12/08 19:59:34;;;;;;;31.70;18.15;;;2.80;92.50;;;;;;5086806;28;27420;-30
2020/12/08 20:02:19;;;;;;;30.90;16.70;;;2.70;92.50;;;;;;5086523;28;27399;-29
2020/12/08 20:05:07;;;;;;;33.90;18.35;;;2.70;92.50;;;;;;5086441;28;27449;-29
2020/12/08 20:07:54;;;;;;;31.55;17.13;;;2.70;92.50;;;;;;5086357;28;27888;-30
2020/12/08 20:10:39;;;;;;;30.55;17.13;;;2.70;92.50;;;;;;5086662;28;27431;-29
2020/12/08 20:13:26;;;;;;;32.67;17.40;;;2.70;92.60;;;;;;5086557;28;27369;-31
2020/12/08 20:16:16;;;;;;;33.20;16.90;;;2.70;92.60;;;;;;5086082;28;27359;-30
2020/12/08 20:19:04;;;;;;;30.42;17.75;;;2.70;92.60;;;;;;5085725;28;27438;-30
2020/12/08 20:21:51;;;;;;;31.35;17.67;;;2.70;92.60;;;;;;5086165;28;27427;-30
2020/12/08 20:24:35;;;;;;;32.42;18.02;;;2.70;92.60;;;;;;5086195;28;27389;-31
2020/12/08 20:27:20;;;;;;;33.85;18.30;;;2.70;92.60;;;;;;5086345;28;27377;-30
2020/12/08 20:30:06;;;;;;;34.50;18.70;;;2.70;92.60;;;;;;5086336;28;27353;-30
2020/12/08 20:32:50;;;;;;;32.40;18.17;;;2.70;92.60;;;;;;5085935;28;27554;-29
2020/12/08 20:35:35;;;;;;;32.88;18.15;;;2.70;92.60;;;;;;5082228;28;27378;-30
2020/12/08 20:38:22;;;;;;;34.58;19.63;;;2.70;92.60;;;;;;5085975;28;27339;-30
2020/12/08 20:41:07;;;;;;;38.17;19.20;;;2.70;92.70;;;;;;5085897;28;27546;-31
2020/12/08 20:43:54;;;;;;;34.90;18.92;;;2.70;92.80;;;;;;5083523;28;27443;-31
2020/12/08 20:46:41;;;;;;;35.42;18.65;;;2.70;92.70;;;;;;5085740;28;27403;-31
2020/12/08 20:49:26;;;;;;;35.85;19.40;;;2.70;92.70;;;;;;5085323;28;27466;-31
2020/12/08 20:52:13;;;;;;;34.88;19.73;;;2.70;92.70;;;;;;5085914;28;27355;-30
2020/12/08 20:54:58;;;;;;;36.35;18.63;;;2.70;92.70;;;;;;5085642;28;27403;-31
2020/12/08 20:57:42;;;;;;;38.08;20.55;;;2.70;92.80;;;;;;5085657;28;27365;-30
2020/12/08 21:00:29;;;;;;;36.13;20.83;;;2.70;92.80;;;;;;5085935;28;27379;-30
2020/12/08 21:03:16;;;;;;;38.15;19.85;;;2.70;92.80;;;;;;5085491;28;27908;-30
2020/12/08 21:06:01;;;;;;;37.08;19.98;;;2.70;92.90;;;;;;5084680;28;27497;-30
2020/12/08 21:08:45;;;;;;;34.22;18.27;;;2.70;92.90;;;;;;5085488;28;27321;-30
2020/12/08 21:11:31;;;;;;;36.47;19.55;;;2.70;92.90;;;;;;5085455;28;27344;-30
2020/12/08 21:14:16;;;;;;;39.17;20.60;;;2.70;93.00;;;;;;5084959;28;27379;-31
2020/12/08 21:17:02;;;;;;;33.83;18.90;;;2.70;93.00;;;;;;5085369;28;27395;-31
2020/12/08 21:19:50;;;;;;;39.55;20.40;;;2.70;93.00;;;;;;5085354;28;27427;-30
2020/12/08 21:22:37;;;;;;;38.63;21.70;;;2.70;93.00;;;;;;5085586;28;27423;-31
2020/12/08 21:25:22;;;;;;;39.50;20.15;;;2.70;93.00;;;;;;5085433;28;27901;-31
2020/12/08 21:28:07;;;;;;;40.50;21.73;;;2.70;93.00;;;;;;5084370;28;27429;-30
2020/12/08 21:30:55;;;;;;;38.17;19.98;;;2.70;93.00;;;;;;5085450;28;27378;-30
2020/12/08 21:33:42;;;;;;;38.33;19.63;;;2.70;93.00;;;;;;5085104;28;27349;-31
2020/12/08 21:36:26;;;;;;;37.90;21.15;;;2.70;93.00;;;;;;5084988;28;27437;-30
2020/12/08 21:39:11;;;;;;;41.65;21.67;;;2.70;92.90;;;;;;5085037;28;27534;-31
2020/12/08 21:41:55;;;;;;;40.47;21.02;;;2.70;92.90;;;;;;5084411;28;27321;-29
2020/12/08 21:44:40;;;;;;;41.63;22.70;;;2.70;92.90;;;;;;5084335;28;27379;-30
2020/12/08 21:47:27;;;;;;;41.05;21.77;;;2.70;92.90;;;;;;5085102;28;27367;-30
2020/12/08 21:50:12;;;;;;;36.25;18.95;;;2.70;92.90;;;;;;5084845;28;27435;-29
2020/12/08 21:52:57;;;;;;;36.58;20.40;;;2.70;92.90;;;;;;5084848;28;27472;-30
2020/12/08 21:55:42;;;;;;;38.67;19.83;;;2.70;92.90;;;;;;5085022;28;27471;-30
2020/12/08 21:58:26;;;;;;;35.80;20.70;;;2.70;92.90;;;;;;5084906;28;27967;-30
2020/12/08 22:01:11;;;;;;;37.28;19.60;;;2.70;92.90;;;;;;5084956;28;27383;-31
2020/12/08 22:03:56;;;;;;;37.53;20.27;;;2.70;92.90;;;;;;5084527;28;27349;-30
2020/12/08 22:06:40;;;;;;;39.47;21.10;;;2.70;92.90;;;;;;5084912;28;26866;-31
2020/12/08 22:09:26;;;;;;;33.92;18.73;;;2.70;93.00;;;;;;5084157;28;27394;-31
2020/12/08 22:12:10;;;;;;;39.45;22.10;;;2.70;93.00;;;;;;5084811;28;27332;-30
2020/12/08 22:14:55;;;;;;;38.20;20.60;;;2.70;93.00;;;;;;5084859;28;27332;-31
2020/12/08 22:17:40;;;;;;;37.15;19.27;;;2.70;93.00;;;;;;5084511;28;27322;-32
2020/12/08 22:20:24;;;;;;;39.50;20.90;;;2.60;93.10;;;;;;5084608;28;27323;-30
2020/12/08 22:23:09;;;;;;;37.28;19.75;;;2.70;93.10;;;;;;5084576;28;27463;-30
2020/12/08 22:25:56;;;;;;;39.90;21.15;;;2.70;93.10;;;;;;5084402;28;27423;-32
2020/12/08 22:28:41;;;;;;;36.63;17.92;;;2.70;93.20;;;;;;5084599;28;27443;-31
2020/12/08 22:31:25;;;;;;;38.00;18.58;;;2.70;93.20;;;;;;5084454;28;27963;-30
2020/12/08 22:34:13;;;;;;;39.58;19.27;;;2.70;93.20;;;;;;5084506;28;27462;-31
2020/12/08 22:36:58;;;;;;;34.33;18.42;;;2.70;93.20;;;;;;5083927;28;27493;-30
2020/12/08 22:39:44;;;;;;;37.05;19.60;;;2.70;93.30;;;;;;5084202;28;27491;-30
2020/12/08 22:42:29;;;;;;;38.15;20.73;;;2.70;93.20;;;;;;5084300;28;27472;-30
2020/12/08 22:45:14;;;;;;;36.65;20.00;;;2.70;93.20;;;;;;5083946;28;27476;-30
2020/12/08 22:47:59;;;;;;;34.50;18.10;;;2.70;93.30;;;;;;5084373;28;27442;-31
2020/12/08 22:50:43;;;;;;;35.28;18.60;;;2.70;93.30;;;;;;5084270;28;27469;-30
2020/12/08 22:53:28;;;;;;;37.25;19.90;;;2.70;93.30;;;;;;5083961;28;27511;-29
2020/12/08 22:56:12;;;;;;;33.63;19.88;;;2.70;93.30;;;;;;5083859;28;27477;-29
2020/12/08 22:58:58;;;;;;;36.97;19.50;;;2.70;93.30;;;;;;5083387;28;27504;-30
2020/12/08 23:01:47;;;;;;;36.60;19.23;;;2.70;93.30;;;;;;5083859;28;27458;-31
2020/12/08 23:04:32;;;;;;;37.40;19.73;;;2.70;93.30;;;;;;5083544;28;27331;-31
2020/12/08 23:07:16;;;;;;;38.03;19.60;;;2.70;93.30;;;;;;5083994;28;27341;-30
2020/12/08 23:10:01;;;;;;;35.78;19.40;;;2.80;93.30;;;;;;5083832;28;27408;-30
2020/12/08 23:12:46;;;;;;;36.40;18.60;;;2.70;93.30;;;;;;5083778;28;27387;-30
2020/12/08 23:15:31;;;;;;;32.78;18.52;;;2.80;93.30;;;;;;5083873;28;27545;-30
2020/12/08 23:18:16;;;;;;;36.58;18.80;;;2.70;93.30;;;;;;5083123;28;27447;-30
2020/12/08 23:21:00;;;;;;;33.72;19.58;;;2.80;93.30;;;;;;5083714;28;27438;-30
2020/12/08 23:23:48;;;;;;;39.33;19.88;;;2.80;93.30;;;;;;5083756;28;27474;-31
2020/12/08 23:26:32;;;;;;;41.53;21.83;;;2.80;93.40;;;;;;5083833;28;27316;-30
2020/12/08 23:29:17;;;;;;;34.70;19.33;;;2.80;93.30;;;;;;5083504;28;27495;-31
2020/12/08 23:32:04;;;;;;;36.40;19.80;;;2.70;93.30;;;;;;5083344;28;27423;-31
2020/12/08 23:34:49;;;;;;;39.60;20.20;;;2.80;93.40;;;;;;5083694;28;27399;-31
2020/12/08 23:37:37;;;;;;;34.60;18.98;;;2.70;93.30;;;;;;5080113;28;27316;-31
2020/12/08 23:40:22;;;;;;;39.55;20.80;;;2.80;93.40;;;;;;5083660;28;27423;-29
2020/12/08 23:43:07;;;;;;;39.50;21.60;;;2.80;93.40;;;;;;5079704;28;27472;-30
2020/12/08 23:45:54;;;;;;;34.15;19.55;;;2.80;93.40;;;;;;5083294;28;27474;-31
2020/12/08 23:48:39;;;;;;;40.10;21.25;;;2.70;93.40;;;;;;5064996;28;27388;-30
2020/12/08 23:51:23;;;;;;;37.42;20.00;;;2.70;93.30;;;;;;5085107;28;27490;-30
2020/12/08 23:54:08;;;;;;;34.28;19.05;;;2.80;93.40;;;;;;5086786;28;27490;-30
2020/12/08 23:56:57;;;;;;;36.13;19.60;;;2.70;93.30;;;;;;5087007;28;27522;-30
2020/12/08 23:59:41;;;;;;;36.95;19.30;;;2.70;93.30;;;;;;5086709;28;27430;-31
